sensor_id;sensor_type;location;lat;lon;timestamp;pressure;altitude;pressure_sealevel;temperature;humidity
45441;BME280;31189;38.790;-77.084;2024-01-30T00:00:16;101542.69;;;6.62;41.14
45441;BME280;31189;38.790;-77.084;2024-01-30T00:02:41;101545.47;;;7.55;39.28
45441;BME280;31189;38.790;-77.084;2024-01-30T00:05:07;101542.83;;;3.67;43.44
45441;BME280;31189;38.790;-77.084;2024-01-30T00:07:33;101556.41;;;6.94;40.73
45441;BME280;31189;38.790;-77.084;2024-01-30T00:09:58;101561.28;;;6.87;40.98
45441;BME280;31189;38.790;-77.084;2024-01-30T00:12:24;101570.94;;;6.79;40.03
45441;BME280;31189;38.790;-77.084;2024-01-30T00:14:49;101585.65;;;6.93;40.09
45441;BME280;31189;38.790;-77.084;2024-01-30T00:17:15;101578.37;;;5.34;42.23
45441;BME280;31189;38.790;-77.084;2024-01-30T00:19:41;101588.47;;;7.51;39.90
45441;BME280;31189;38.790;-77.084;2024-01-30T00:22:07;101591.81;;;7.74;39.48
45441;BME280;31189;38.790;-77.084;2024-01-30T00:24:32;101588.15;;;6.96;38.94
45441;BME280;31189;38.790;-77.084;2024-01-30T00:26:58;101589.52;;;6.89;40.41
45441;BME280;31189;38.790;-77.084;2024-01-30T00:29:23;101593.70;;;7.66;38.81
45441;BME280;31189;38.790;-77.084;2024-01-30T00:31:49;101593.10;;;6.11;41.96
45441;BME280;31189;38.790;-77.084;2024-01-30T00:34:15;101596.17;;;6.91;40.75
45441;BME280;31189;38.790;-77.084;2024-01-30T00:36:40;101600.06;;;6.96;40.74
45441;BME280;31189;38.790;-77.084;2024-01-30T00:39:06;101599.69;;;6.53;40.02
45441;BME280;31189;38.790;-77.084;2024-01-30T00:41:32;101610.79;;;6.00;42.10
45441;BME280;31189;38.790;-77.084;2024-01-30T00:43:58;101615.97;;;6.76;41.51
45441;BME280;31189;38.790;-77.084;2024-01-30T00:46:23;101624.40;;;6.83;41.23
45441;BME280;31189;38.790;-77.084;2024-01-30T00:48:49;101629.44;;;7.09;40.79
45441;BME280;31189;38.790;-77.084;2024-01-30T00:51:15;101629.05;;;6.42;40.38
45441;BME280;31189;38.790;-77.084;2024-01-30T00:53:40;101634.65;;;7.12;40.33
45441;BME280;31189;38.790;-77.084;2024-01-30T00:56:06;101640.57;;;7.62;39.33
45441;BME280;31189;38.790;-77.084;2024-01-30T00:58:32;101643.89;;;7.32;38.87
45441;BME280;31189;38.790;-77.084;2024-01-30T01:00:57;101647.64;;;7.01;39.65
45441;BME280;31189;38.790;-77.084;2024-01-30T01:03:23;101648.77;;;8.03;38.90
45441;BME280;31189;38.790;-77.084;2024-01-30T01:05:49;101643.92;;;8.54;37.98
45441;BME280;31189;38.790;-77.084;2024-01-30T01:08:14;101644.23;;;8.02;38.10
45441;BME280;31189;38.790;-77.084;2024-01-30T01:10:40;101648.09;;;6.35;40.48
45441;BME280;31189;38.790;-77.084;2024-01-30T01:13:06;101655.01;;;7.20;39.90
45441;BME280;31189;38.790;-77.084;2024-01-30T01:15:31;101657.41;;;7.77;39.27
45441;BME280;31189;38.790;-77.084;2024-01-30T01:17:57;101653.65;;;7.25;38.94
45441;BME280;31189;38.790;-77.084;2024-01-30T01:20:23;101656.99;;;6.32;41.07
45441;BME280;31189;38.790;-77.084;2024-01-30T01:22:48;101658.68;;;5.22;41.64
45441;BME280;31189;38.790;-77.084;2024-01-30T01:25:14;101661.67;;;6.30;41.31
45441;BME280;31189;38.790;-77.084;2024-01-30T01:27:40;101664.09;;;6.83;39.55
45441;BME280;31189;38.790;-77.084;2024-01-30T01:30:07;101672.81;;;7.39;39.16
45441;BME280;31189;38.790;-77.084;2024-01-30T01:32:31;101683.81;;;8.01;38.51
45441;BME280;31189;38.790;-77.084;2024-01-30T01:34:57;101684.95;;;8.39;38.04
45441;BME280;31189;38.790;-77.084;2024-01-30T01:37:22;101688.33;;;8.22;37.82
45441;BME280;31189;38.790;-77.084;2024-01-30T01:39:48;101694.49;;;8.97;37.71
45441;BME280;31189;38.790;-77.084;2024-01-30T01:42:14;101694.27;;;7.74;38.61
45441;BME280;31189;38.790;-77.084;2024-01-30T01:44:39;101697.18;;;8.05;37.92
45441;BME280;31189;38.790;-77.084;2024-01-30T01:47:05;101699.59;;;8.67;37.41
45441;BME280;31189;38.790;-77.084;2024-01-30T01:49:31;101705.14;;;8.27;37.33
45441;BME280;31189;38.790;-77.084;2024-01-30T01:51:57;101707.24;;;7.50;38.00
45441;BME280;31189;38.790;-77.084;2024-01-30T01:54:22;101708.38;;;8.07;38.52
45441;BME280;31189;38.790;-77.084;2024-01-30T01:56:48;101708.93;;;7.41;38.15
45441;BME280;31189;38.790;-77.084;2024-01-30T01:59:14;101711.06;;;8.18;38.26
45441;BME280;31189;38.790;-77.084;2024-01-30T02:01:39;101710.44;;;7.99;38.63
45441;BME280;31189;38.790;-77.084;2024-01-30T02:04:05;101710.67;;;8.50;38.04
45441;BME280;31189;38.790;-77.084;2024-01-30T02:06:31;101711.82;;;8.43;37.61
45441;BME280;31189;38.790;-77.084;2024-01-30T02:08:56;101712.94;;;8.71;37.26
45441;BME280;31189;38.790;-77.084;2024-01-30T02:11:23;101720.55;;;7.62;38.80
45441;BME280;31189;38.790;-77.084;2024-01-30T02:13:47;101720.51;;;8.40;37.77
45441;BME280;31189;38.790;-77.084;2024-01-30T02:16:13;101720.67;;;9.09;37.31
45441;BME280;31189;38.790;-77.084;2024-01-30T02:18:38;101729.74;;;7.93;36.96
45441;BME280;31189;38.790;-77.084;2024-01-30T02:21:05;101734.73;;;7.81;38.43
45441;BME280;31189;38.790;-77.084;2024-01-30T02:23:31;101739.15;;;8.02;38.17
45441;BME280;31189;38.790;-77.084;2024-01-30T02:25:55;101739.61;;;8.62;38.03
45441;BME280;31189;38.790;-77.084;2024-01-30T02:28:21;101741.80;;;8.36;37.75
45441;BME280;31189;38.790;-77.084;2024-01-30T02:30:47;101738.73;;;8.37;38.15
45441;BME280;31189;38.790;-77.084;2024-01-30T02:33:13;101738.41;;;7.14;39.24
45441;BME280;31189;38.790;-77.084;2024-01-30T02:35:38;101742.27;;;8.17;38.14
45441;BME280;31189;38.790;-77.084;2024-01-30T02:38:04;101741.89;;;8.75;37.49
45441;BME280;31189;38.790;-77.084;2024-01-30T02:40:29;101744.57;;;8.35;37.23
45441;BME280;31189;38.790;-77.084;2024-01-30T02:42:57;101748.61;;;9.29;37.16
45441;BME280;31189;38.790;-77.084;2024-01-30T02:45:21;101752.32;;;8.67;37.53
45441;BME280;31189;38.790;-77.084;2024-01-30T02:47:47;101752.98;;;7.96;37.54
45441;BME280;31189;38.790;-77.084;2024-01-30T02:50:12;101754.86;;;8.51;37.91
45441;BME280;31189;38.790;-77.084;2024-01-30T02:52:38;101755.60;;;4.18;40.89
45441;BME280;31189;38.790;-77.084;2024-01-30T02:55:04;101755.41;;;6.02;40.76
45441;BME280;31189;38.790;-77.084;2024-01-30T02:57:29;101755.62;;;6.93;40.70
45441;BME280;31189;38.790;-77.084;2024-01-30T02:59:55;101757.58;;;7.48;39.60
45441;BME280;31189;38.790;-77.084;2024-01-30T03:02:20;101754.07;;;7.53;39.36
45441;BME280;31189;38.790;-77.084;2024-01-30T03:04:47;101752.20;;;7.47;38.88
45441;BME280;31189;38.790;-77.084;2024-01-30T03:07:12;101753.74;;;8.31;38.14
45441;BME280;31189;38.790;-77.084;2024-01-30T03:09:38;101754.81;;;8.50;37.88
45441;BME280;31189;38.790;-77.084;2024-01-30T03:12:04;101757.39;;;9.00;37.12
45441;BME280;31189;38.790;-77.084;2024-01-30T03:14:30;101758.64;;;8.51;37.43
45441;BME280;31189;38.790;-77.084;2024-01-30T03:16:54;101762.23;;;8.63;37.47
45441;BME280;31189;38.790;-77.084;2024-01-30T03:19:20;101763.67;;;8.62;37.48
45441;BME280;31189;38.790;-77.084;2024-01-30T03:21:46;101766.57;;;8.30;37.98
45441;BME280;31189;38.790;-77.084;2024-01-30T03:24:11;101762.20;;;8.62;37.26
45441;BME280;31189;38.790;-77.084;2024-01-30T03:26:37;101764.96;;;8.55;37.85
45441;BME280;31189;38.790;-77.084;2024-01-30T03:29:03;101764.66;;;7.92;37.90
45441;BME280;31189;38.790;-77.084;2024-01-30T03:31:29;101767.84;;;8.23;37.93
45441;BME280;31189;38.790;-77.084;2024-01-30T03:33:54;101764.64;;;8.67;37.46
45441;BME280;31189;38.790;-77.084;2024-01-30T03:36:20;101766.58;;;8.17;37.39
45441;BME280;31189;38.790;-77.084;2024-01-30T03:38:45;101765.56;;;8.18;38.38
45441;BME280;31189;38.790;-77.084;2024-01-30T03:41:11;101764.17;;;9.19;37.44
45441;BME280;31189;38.790;-77.084;2024-01-30T03:43:37;101767.03;;;8.62;37.24
45441;BME280;31189;38.790;-77.084;2024-01-30T03:46:03;101769.79;;;9.19;37.02
45441;BME280;31189;38.790;-77.084;2024-01-30T03:48:29;101767.29;;;8.87;36.96
45441;BME280;31189;38.790;-77.084;2024-01-30T03:50:54;101766.22;;;8.73;37.41
45441;BME280;31189;38.790;-77.084;2024-01-30T03:53:20;101763.82;;;8.73;37.29
45441;BME280;31189;38.790;-77.084;2024-01-30T03:55:45;101766.25;;;8.36;37.38
45441;BME280;31189;38.790;-77.084;2024-01-30T03:58:11;101765.13;;;9.10;37.32
45441;BME280;31189;38.790;-77.084;2024-01-30T04:00:36;101767.51;;;8.47;37.36
45441;BME280;31189;38.790;-77.084;2024-01-30T04:03:02;101766.92;;;8.15;37.86
45441;BME280;31189;38.790;-77.084;2024-01-30T04:05:27;101767.22;;;8.58;37.31
45441;BME280;31189;38.790;-77.084;2024-01-30T04:07:53;101768.58;;;7.65;38.30
45441;BME280;31189;38.790;-77.084;2024-01-30T04:10:19;101767.97;;;8.56;38.09
45441;BME280;31189;38.790;-77.084;2024-01-30T04:12:44;101768.05;;;9.29;37.27
45441;BME280;31189;38.790;-77.084;2024-01-30T04:15:10;101770.22;;;8.14;38.10
45441;BME280;31189;38.790;-77.084;2024-01-30T04:17:36;101769.01;;;9.14;37.58
45441;BME280;31189;38.790;-77.084;2024-01-30T04:20:01;101776.57;;;8.92;37.41
45441;BME280;31189;38.790;-77.084;2024-01-30T04:22:27;101779.63;;;9.08;37.02
45441;BME280;31189;38.790;-77.084;2024-01-30T04:24:53;101780.24;;;9.53;36.16
45441;BME280;31189;38.790;-77.084;2024-01-30T04:27:18;101782.62;;;9.88;36.33
45441;BME280;31189;38.790;-77.084;2024-01-30T04:29:44;101784.36;;;9.53;36.36
45441;BME280;31189;38.790;-77.084;2024-01-30T04:32:10;101785.39;;;9.65;36.32
45441;BME280;31189;38.790;-77.084;2024-01-30T04:34:36;101786.35;;;9.77;36.62
45441;BME280;31189;38.790;-77.084;2024-01-30T04:37:01;101789.31;;;9.29;36.84
45441;BME280;31189;38.790;-77.084;2024-01-30T04:39:27;101789.53;;;9.36;36.86
45441;BME280;31189;38.790;-77.084;2024-01-30T04:41:52;101789.64;;;9.32;36.92
45441;BME280;31189;38.790;-77.084;2024-01-30T04:44:18;101788.68;;;9.31;36.67
45441;BME280;31189;38.790;-77.084;2024-01-30T04:46:43;101790.61;;;9.66;36.45
45441;BME280;31189;38.790;-77.084;2024-01-30T04:49:09;101796.34;;;8.37;36.88
45441;BME280;31189;38.790;-77.084;2024-01-30T04:51:35;101798.61;;;9.18;37.28
45441;BME280;31189;38.790;-77.084;2024-01-30T04:54:00;101797.43;;;9.42;36.91
45441;BME280;31189;38.790;-77.084;2024-01-30T04:56:26;101793.90;;;9.49;36.88
45441;BME280;31189;38.790;-77.084;2024-01-30T04:58:52;101792.77;;;8.51;37.48
45441;BME280;31189;38.790;-77.084;2024-01-30T05:01:17;101792.82;;;9.22;36.88
45441;BME280;31189;38.790;-77.084;2024-01-30T05:03:43;101790.85;;;9.63;36.76
45441;BME280;31189;38.790;-77.084;2024-01-30T05:06:08;101789.34;;;9.58;36.50
45441;BME280;31189;38.790;-77.084;2024-01-30T05:08:34;101791.29;;;9.67;36.33
45441;BME280;31189;38.790;-77.084;2024-01-30T05:11:01;101792.86;;;9.15;36.16
45441;BME280;31189;38.790;-77.084;2024-01-30T05:13:25;101792.76;;;9.51;36.38
45441;BME280;31189;38.790;-77.084;2024-01-30T05:15:51;101792.01;;;9.87;36.43
45441;BME280;31189;38.790;-77.084;2024-01-30T05:18:17;101794.07;;;8.87;36.80
45441;BME280;31189;38.790;-77.084;2024-01-30T05:20:42;101790.30;;;8.09;37.64
45441;BME280;31189;38.790;-77.084;2024-01-30T05:23:08;101790.40;;;8.83;36.91
45441;BME280;31189;38.790;-77.084;2024-01-30T05:25:34;101788.10;;;9.62;36.67
45441;BME280;31189;38.790;-77.084;2024-01-30T05:27:59;101787.17;;;9.70;36.77
45441;BME280;31189;38.790;-77.084;2024-01-30T05:30:25;101786.43;;;9.57;36.67
45441;BME280;31189;38.790;-77.084;2024-01-30T05:32:50;101786.21;;;9.75;36.61
45441;BME280;31189;38.790;-77.084;2024-01-30T05:35:16;101786.84;;;9.96;36.60
45441;BME280;31189;38.790;-77.084;2024-01-30T05:37:42;101789.51;;;9.52;36.53
45441;BME280;31189;38.790;-77.084;2024-01-30T05:40:08;101792.42;;;9.60;36.53
45441;BME280;31189;38.790;-77.084;2024-01-30T05:42:33;101792.42;;;9.73;36.39
45441;BME280;31189;38.790;-77.084;2024-01-30T05:44:59;101794.49;;;9.67;36.34
45441;BME280;31189;38.790;-77.084;2024-01-30T05:47:24;101801.28;;;8.66;37.57
45441;BME280;31189;38.790;-77.084;2024-01-30T05:49:50;101797.96;;;7.13;38.92
45441;BME280;31189;38.790;-77.084;2024-01-30T05:52:16;101803.96;;;8.18;38.69
45441;BME280;31189;38.790;-77.084;2024-01-30T05:54:41;101800.51;;;8.90;37.54
45441;BME280;31189;38.790;-77.084;2024-01-30T05:57:07;101797.00;;;9.00;37.68
45441;BME280;31189;38.790;-77.084;2024-01-30T05:59:33;101801.13;;;8.75;37.63
45441;BME280;31189;38.790;-77.084;2024-01-30T06:01:58;101801.91;;;8.42;37.22
45441;BME280;31189;38.790;-77.084;2024-01-30T06:04:24;101800.20;;;7.38;39.93
45441;BME280;31189;38.790;-77.084;2024-01-30T06:06:50;101799.78;;;8.56;38.44
45441;BME280;31189;38.790;-77.084;2024-01-30T06:09:15;101798.65;;;8.00;38.79
45441;BME280;31189;38.790;-77.084;2024-01-30T06:11:41;101801.83;;;8.28;38.73
45441;BME280;31189;38.790;-77.084;2024-01-30T06:14:07;101803.04;;;7.79;39.08
45441;BME280;31189;38.790;-77.084;2024-01-30T06:16:32;101804.65;;;8.56;38.40
45441;BME280;31189;38.790;-77.084;2024-01-30T06:18:58;101804.82;;;5.55;41.05
45441;BME280;31189;38.790;-77.084;2024-01-30T06:21:24;101804.40;;;7.38;40.72
45441;BME280;31189;38.790;-77.084;2024-01-30T06:23:49;101809.01;;;7.48;39.61
45441;BME280;31189;38.790;-77.084;2024-01-30T06:26:15;101815.87;;;8.64;38.74
45441;BME280;31189;38.790;-77.084;2024-01-30T06:28:40;101815.26;;;8.95;36.93
45441;BME280;31189;38.790;-77.084;2024-01-30T06:31:06;101816.08;;;8.27;37.71
45441;BME280;31189;38.790;-77.084;2024-01-30T06:33:32;101812.63;;;7.85;39.56
45441;BME280;31189;38.790;-77.084;2024-01-30T06:35:58;101819.08;;;8.82;38.94
45441;BME280;31189;38.790;-77.084;2024-01-30T06:38:23;101819.22;;;7.68;37.80
45441;BME280;31189;38.790;-77.084;2024-01-30T06:40:49;101823.78;;;7.23;39.31
45441;BME280;31189;38.790;-77.084;2024-01-30T06:43:14;101823.10;;;8.12;38.84
45441;BME280;31189;38.790;-77.084;2024-01-30T06:45:40;101825.56;;;8.47;38.34
45441;BME280;31189;38.790;-77.084;2024-01-30T06:48:07;101821.60;;;7.00;38.94
45441;BME280;31189;38.790;-77.084;2024-01-30T06:50:31;101830.02;;;8.97;38.66
45441;BME280;31189;38.790;-77.084;2024-01-30T06:52:57;101828.22;;;8.78;38.08
45441;BME280;31189;38.790;-77.084;2024-01-30T06:55:23;101827.66;;;8.36;38.45
45441;BME280;31189;38.790;-77.084;2024-01-30T06:57:48;101831.05;;;7.97;37.31
45441;BME280;31189;38.790;-77.084;2024-01-30T07:00:15;101833.58;;;7.56;40.01
45441;BME280;31189;38.790;-77.084;2024-01-30T07:02:40;101836.51;;;6.99;39.41
45441;BME280;31189;38.790;-77.084;2024-01-30T07:05:06;101838.87;;;8.32;38.91
45441;BME280;31189;38.790;-77.084;2024-01-30T07:07:31;101831.83;;;7.93;39.28
45441;BME280;31189;38.790;-77.084;2024-01-30T07:09:57;101831.97;;;7.90;39.20
45441;BME280;31189;38.790;-77.084;2024-01-30T07:12:23;101835.45;;;8.15;38.65
45441;BME280;31189;38.790;-77.084;2024-01-30T07:14:48;101832.72;;;7.75;39.32
45441;BME280;31189;38.790;-77.084;2024-01-30T07:17:13;101836.91;;;7.73;38.54
45441;BME280;31189;38.790;-77.084;2024-01-30T07:19:39;101838.68;;;7.65;39.39
45441;BME280;31189;38.790;-77.084;2024-01-30T07:22:05;101842.39;;;8.60;37.65
45441;BME280;31189;38.790;-77.084;2024-01-30T07:24:30;101841.12;;;7.40;39.14
45441;BME280;31189;38.790;-77.084;2024-01-30T07:26:56;101838.46;;;6.28;40.33
45441;BME280;31189;38.790;-77.084;2024-01-30T07:29:22;101835.19;;;7.17;40.83
45441;BME280;31189;38.790;-77.084;2024-01-30T07:31:47;101839.28;;;7.83;39.71
45441;BME280;31189;38.790;-77.084;2024-01-30T07:34:13;101840.09;;;7.96;38.88
45441;BME280;31189;38.790;-77.084;2024-01-30T07:36:39;101843.19;;;8.14;38.96
45441;BME280;31189;38.790;-77.084;2024-01-30T07:39:05;101846.64;;;8.43;38.73
45441;BME280;31189;38.790;-77.084;2024-01-30T07:41:30;101847.64;;;8.54;38.94
45441;BME280;31189;38.790;-77.084;2024-01-30T07:43:56;101847.32;;;8.47;38.58
45441;BME280;31189;38.790;-77.084;2024-01-30T07:46:21;101853.55;;;8.91;37.40
45441;BME280;31189;38.790;-77.084;2024-01-30T07:48:47;101855.91;;;5.54;40.36
45441;BME280;31189;38.790;-77.084;2024-01-30T07:51:13;101853.71;;;7.34;39.67
45441;BME280;31189;38.790;-77.084;2024-01-30T07:53:38;101853.55;;;6.70;40.26
45441;BME280;31189;38.790;-77.084;2024-01-30T07:56:05;101845.56;;;7.53;39.08
45441;BME280;31189;38.790;-77.084;2024-01-30T07:58:30;101842.17;;;7.42;39.56
45441;BME280;31189;38.790;-77.084;2024-01-30T08:00:55;101847.68;;;7.87;38.20
45441;BME280;31189;38.790;-77.084;2024-01-30T08:03:21;101850.28;;;6.53;39.53
45441;BME280;31189;38.790;-77.084;2024-01-30T08:05:46;101846.88;;;7.23;40.07
45441;BME280;31189;38.790;-77.084;2024-01-30T08:08:12;101850.03;;;8.17;39.15
45441;BME280;31189;38.790;-77.084;2024-01-30T08:10:38;101849.14;;;8.48;39.11
45441;BME280;31189;38.790;-77.084;2024-01-30T08:13:03;101854.05;;;8.83;38.70
45441;BME280;31189;38.790;-77.084;2024-01-30T08:15:29;101852.46;;;9.01;38.52
45441;BME280;31189;38.790;-77.084;2024-01-30T08:17:55;101846.92;;;8.95;37.53
45441;BME280;31189;38.790;-77.084;2024-01-30T08:20:20;101845.33;;;9.43;38.22
45441;BME280;31189;38.790;-77.084;2024-01-30T08:22:46;101847.29;;;9.30;37.26
45441;BME280;31189;38.790;-77.084;2024-01-30T08:25:12;101848.82;;;9.09;37.44
45441;BME280;31189;38.790;-77.084;2024-01-30T08:27:37;101847.55;;;9.40;38.05
45441;BME280;31189;38.790;-77.084;2024-01-30T08:30:04;101847.97;;;9.09;36.49
45441;BME280;31189;38.790;-77.084;2024-01-30T08:32:29;101849.07;;;9.49;37.75
45441;BME280;31189;38.790;-77.084;2024-01-30T08:34:54;101850.91;;;8.62;37.48
45441;BME280;31189;38.790;-77.084;2024-01-30T08:37:20;101850.65;;;8.76;37.79
45441;BME280;31189;38.790;-77.084;2024-01-30T08:39:45;101845.90;;;8.40;37.80
45441;BME280;31189;38.790;-77.084;2024-01-30T08:42:11;101841.68;;;8.93;36.65
45441;BME280;31189;38.790;-77.084;2024-01-30T08:44:37;101841.92;;;9.63;37.13
45441;BME280;31189;38.790;-77.084;2024-01-30T08:47:03;101843.73;;;9.67;36.91
45441;BME280;31189;38.790;-77.084;2024-01-30T08:49:28;101841.35;;;9.73;36.37
45441;BME280;31189;38.790;-77.084;2024-01-30T08:51:54;101839.60;;;9.25;35.84
45441;BME280;31189;38.790;-77.084;2024-01-30T08:54:19;101835.81;;;9.41;35.98
45441;BME280;31189;38.790;-77.084;2024-01-30T08:56:45;101826.14;;;9.74;35.57
45441;BME280;31189;38.790;-77.084;2024-01-30T08:59:11;101822.32;;;9.91;35.63
45441;BME280;31189;38.790;-77.084;2024-01-30T09:01:36;101819.55;;;10.05;35.73
45441;BME280;31189;38.790;-77.084;2024-01-30T09:04:02;101826.02;;;8.72;35.56
45441;BME280;31189;38.790;-77.084;2024-01-30T09:06:27;101824.01;;;8.16;36.64
45441;BME280;31189;38.790;-77.084;2024-01-30T09:08:53;101828.20;;;8.59;36.14
45441;BME280;31189;38.790;-77.084;2024-01-30T09:11:19;101825.45;;;8.91;37.30
45441;BME280;31189;38.790;-77.084;2024-01-30T09:13:45;101824.98;;;9.52;36.21
45441;BME280;31189;38.790;-77.084;2024-01-30T09:16:10;101830.43;;;9.26;36.39
45441;BME280;31189;38.790;-77.084;2024-01-30T09:18:36;101826.55;;;9.28;36.02
45441;BME280;31189;38.790;-77.084;2024-01-30T09:21:01;101825.88;;;9.53;35.52
45441;BME280;31189;38.790;-77.084;2024-01-30T09:23:28;101827.20;;;9.43;36.08
45441;BME280;31189;38.790;-77.084;2024-01-30T09:25:53;101824.99;;;8.97;35.37
45441;BME280;31189;38.790;-77.084;2024-01-30T09:28:18;101825.35;;;9.81;35.21
45441;BME280;31189;38.790;-77.084;2024-01-30T09:30:44;101826.34;;;9.88;34.82
45441;BME280;31189;38.790;-77.084;2024-01-30T09:33:10;101829.55;;;8.59;36.04
45441;BME280;31189;38.790;-77.084;2024-01-30T09:35:36;101826.59;;;9.33;35.69
45441;BME280;31189;38.790;-77.084;2024-01-30T09:38:01;101821.23;;;9.07;35.83
45441;BME280;31189;38.790;-77.084;2024-01-30T09:40:27;101822.05;;;9.73;35.09
45441;BME280;31189;38.790;-77.084;2024-01-30T09:42:52;101828.76;;;9.57;35.22
45441;BME280;31189;38.790;-77.084;2024-01-30T09:45:18;101830.19;;;10.29;34.63
45441;BME280;31189;38.790;-77.084;2024-01-30T09:47:45;101833.11;;;10.32;34.82
45441;BME280;31189;38.790;-77.084;2024-01-30T09:50:10;101837.45;;;7.92;36.01
45441;BME280;31189;38.790;-77.084;2024-01-30T09:52:35;101836.88;;;9.49;35.39
45441;BME280;31189;38.790;-77.084;2024-01-30T09:55:01;101836.38;;;8.66;35.84
45441;BME280;31189;38.790;-77.084;2024-01-30T09:57:26;101841.26;;;9.78;35.10
45441;BME280;31189;38.790;-77.084;2024-01-30T09:59:52;101841.86;;;9.75;34.95
45441;BME280;31189;38.790;-77.084;2024-01-30T10:02:18;101839.39;;;10.07;34.64
45441;BME280;31189;38.790;-77.084;2024-01-30T10:04:43;101844.29;;;10.07;34.64
45441;BME280;31189;38.790;-77.084;2024-01-30T10:07:10;101848.47;;;10.33;34.97
45441;BME280;31189;38.790;-77.084;2024-01-30T10:09:34;101852.89;;;9.45;34.00
45441;BME280;31189;38.790;-77.084;2024-01-30T10:12:00;101859.10;;;8.81;35.73
45441;BME280;31189;38.790;-77.084;2024-01-30T10:14:26;101862.86;;;9.26;36.17
45441;BME280;31189;38.790;-77.084;2024-01-30T10:16:51;101865.97;;;9.50;35.44
45441;BME280;31189;38.790;-77.084;2024-01-30T10:19:17;101869.63;;;7.75;36.39
45441;BME280;31189;38.790;-77.084;2024-01-30T10:21:42;101874.28;;;8.96;35.70
45441;BME280;31189;38.790;-77.084;2024-01-30T10:24:08;101879.40;;;8.75;35.07
45441;BME280;31189;38.790;-77.084;2024-01-30T10:26:34;101880.88;;;9.51;35.35
45441;BME280;31189;38.790;-77.084;2024-01-30T10:28:59;101887.86;;;9.09;36.22
45441;BME280;31189;38.790;-77.084;2024-01-30T10:31:25;101885.16;;;9.59;35.66
45441;BME280;31189;38.790;-77.084;2024-01-30T10:33:51;101887.08;;;9.87;36.13
45441;BME280;31189;38.790;-77.084;2024-01-30T10:36:18;101888.72;;;9.75;35.16
45441;BME280;31189;38.790;-77.084;2024-01-30T10:38:43;101890.99;;;8.60;35.82
45441;BME280;31189;38.790;-77.084;2024-01-30T10:41:08;101893.25;;;9.07;36.39
45441;BME280;31189;38.790;-77.084;2024-01-30T10:43:36;101894.96;;;9.06;37.21
45441;BME280;31189;38.790;-77.084;2024-01-30T10:46:09;101892.06;;;8.92;37.18
45441;BME280;31189;38.790;-77.084;2024-01-30T10:48:30;101890.80;;;7.60;39.88
45441;BME280;31189;38.790;-77.084;2024-01-30T10:50:51;101894.09;;;8.64;38.38
45441;BME280;31189;38.790;-77.084;2024-01-30T10:53:17;101894.72;;;8.47;38.17
45441;BME280;31189;38.790;-77.084;2024-01-30T10:55:42;101903.04;;;8.98;38.53
45441;BME280;31189;38.790;-77.084;2024-01-30T10:58:08;101900.83;;;8.58;38.29
45441;BME280;31189;38.790;-77.084;2024-01-30T11:00:33;101905.33;;;8.09;38.62
45441;BME280;31189;38.790;-77.084;2024-01-30T11:02:59;101910.48;;;8.55;38.18
45441;BME280;31189;38.790;-77.084;2024-01-30T11:05:24;101911.13;;;8.23;39.24
45441;BME280;31189;38.790;-77.084;2024-01-30T11:07:50;101916.15;;;9.12;38.02
45441;BME280;31189;38.790;-77.084;2024-01-30T11:10:16;101923.69;;;8.83;37.64
45441;BME280;31189;38.790;-77.084;2024-01-30T11:12:41;101921.23;;;8.95;37.63
45441;BME280;31189;38.790;-77.084;2024-01-30T11:15:08;101922.83;;;8.09;39.07
45441;BME280;31189;38.790;-77.084;2024-01-30T11:17:43;101923.61;;;8.45;38.44
45441;BME280;31189;38.790;-77.084;2024-01-30T11:19:59;101931.73;;;8.87;37.85
45441;BME280;31189;38.790;-77.084;2024-01-30T11:22:24;101936.38;;;8.51;37.38
45441;BME280;31189;38.790;-77.084;2024-01-30T11:24:50;101933.09;;;8.18;38.88
45441;BME280;31189;38.790;-77.084;2024-01-30T11:27:15;101931.70;;;8.81;37.16
45441;BME280;31189;38.790;-77.084;2024-01-30T11:29:41;101933.47;;;8.55;38.01
45441;BME280;31189;38.790;-77.084;2024-01-30T11:32:07;101938.17;;;8.51;38.02
45441;BME280;31189;38.790;-77.084;2024-01-30T11:34:33;101940.50;;;8.15;37.80
45441;BME280;31189;38.790;-77.084;2024-01-30T11:37:01;101942.31;;;8.45;36.94
45441;BME280;31189;38.790;-77.084;2024-01-30T11:39:25;101944.88;;;8.50;36.82
45441;BME280;31189;38.790;-77.084;2024-01-30T11:41:51;101956.28;;;8.96;36.29
45441;BME280;31189;38.790;-77.084;2024-01-30T11:44:16;101954.82;;;8.86;36.16
45441;BME280;31189;38.790;-77.084;2024-01-30T11:46:41;101951.91;;;8.76;37.03
45441;BME280;31189;38.790;-77.084;2024-01-30T11:49:06;101959.10;;;9.30;36.84
45441;BME280;31189;38.790;-77.084;2024-01-30T11:51:32;101972.50;;;9.19;36.30
45441;BME280;31189;38.790;-77.084;2024-01-30T11:53:58;101979.37;;;8.81;36.39
45441;BME280;31189;38.790;-77.084;2024-01-30T11:56:24;101988.15;;;9.18;36.35
45441;BME280;31189;38.790;-77.084;2024-01-30T11:58:50;101997.10;;;9.26;36.33
45441;BME280;31189;38.790;-77.084;2024-01-30T12:01:17;101999.21;;;9.52;35.68
45441;BME280;31189;38.790;-77.084;2024-01-30T12:03:40;101993.92;;;9.25;36.00
45441;BME280;31189;38.790;-77.084;2024-01-30T12:06:06;101992.69;;;9.34;37.36
45441;BME280;31189;38.790;-77.084;2024-01-30T12:08:32;101987.37;;;9.07;36.57
45441;BME280;31189;38.790;-77.084;2024-01-30T12:10:57;101987.22;;;9.05;36.46
45441;BME280;31189;38.790;-77.084;2024-01-30T12:13:23;101983.26;;;8.83;36.19
45441;BME280;31189;38.790;-77.084;2024-01-30T12:15:49;101982.55;;;8.64;36.20
45441;BME280;31189;38.790;-77.084;2024-01-30T12:18:18;101981.35;;;8.78;36.60
45441;BME280;31189;38.790;-77.084;2024-01-30T12:20:40;101984.18;;;8.95;35.83
45441;BME280;31189;38.790;-77.084;2024-01-30T12:23:06;101983.87;;;9.01;35.55
45441;BME280;31189;38.790;-77.084;2024-01-30T12:25:31;101985.88;;;9.17;34.91
45441;BME280;31189;38.790;-77.084;2024-01-30T12:27:58;101979.13;;;8.47;35.13
45441;BME280;31189;38.790;-77.084;2024-01-30T12:30:23;101981.25;;;8.55;35.76